Terminal Aerodrome Forecast
Issued by NWS

Home | Current Version | Previous Version | Text Only | Print | Product List | Glossary On
Versions: 1 2 3 4 5 6 7 8 9 10 11 12 13 14 15 16 17 18
000
FTUS42 KTAE 191900 AAA
TAFVLD
TAF AMD
KVLD 191938Z 1920/2018 01010KT P6SM -DZ SCT007 OVC011
      TEMPO 1920/1923 5SM -RA BR BKN007
     FM200000 04007KT P6SM BKN007
     FM200800 03010KT 5SM BR OVC005=

USA.gov is the U.S. government's official web portal to all federal, state and local government web resources and services.